Pagrindinis puslapis
METAR-TAF:

METAR-TAF

Oro uostai :

Wales, Aliaska, Jungtinės Amerikos Valstijos

platuma: 65-37-21N, ilguma: 168-05-42W, Aukštis: 7 m

Dabartinis oras

Ataskaita buvo paskelbta 9 minutes, ne 23:32 UTC
Vėjas 13 kt iš Šiaurės Rytų
Temperatūra 3°C
Drėgmė 93%
Slėgis 1018 hPa
Matomumas: 16.1 km
Su prošvaistėmis ne aukštis 700 ft
Apsiniaukę ne aukštis 4400 ft

METAR: PAIW 052332Z AUTO 04013KT 10SM BKN007 OVC044 03/02 A3006 RMK AO2

Laikas: 15:41 (23:41 UTC)


TAF: trūkstamas

Orai ataskaitas ir orų prognozės (METAR, TAF).

turimą stotys yra geltonos ir raudonos taškus žemėlapyje.

Perkelti pele per norėdami pamatyti stoties vardą.

Tada spustelėkite, norėdami matyti oro stebėjimo ir prognozės.

Norėdami pakeisti žemėlapį: spustelėkite ant žalios mygtukų su juodo kryžiaus žemyn,; žalią mygtuką su brūkšneliu, jei norite nutolinti; arba žalių rodyklių gretimoms žemėlapius.


METAR-TAF: